Pagrindinis puslapis
METAR-TAF:

METAR-TAF

Oro uostai :

Nalčikas, Rusija

platuma: 43-30-46N, ilguma: 043-38-12E, Aukštis: 445 m

Dabartinis oras

Ataskaita buvo paskelbta 50 minutes, ne 00:00 UTC
Vėjas 4 kt iš Šiaurės/Šiaurės Vakarų
Temperatūra 17°C
Drėgmė 52%
Slėgis 1015 hPa
Matomumas 10 km arba daugiau

METAR: URMN 190000Z 33002MPS 9999 NSC 17/07 Q1015 R24/////// NOSIG RMK QFE725

Laikas: 03:50 (00:50 UTC)

Prognozė

Ataskaita buvo paskelbta 1 valandą ir 50 minutes, ne 23:00 UTC
Prognozė galioja nuo 19 metu 00 UTC su 19 metu 09 UTC
Vėjas 6 kt iš Vakarų/Pietvakarių su gūsio iki 16 kt
Matomumas 10 km arba daugiau
Su prošvaistėmis ne aukštis 2000 ft

TAF: URMN 182300Z 1900/1909 24003G08MPS 9999 BKN020

Orai ataskaitas ir orų prognozės (METAR, TAF).

turimą stotys yra geltonos ir raudonos taškus žemėlapyje.

Perkelti pele per norėdami pamatyti stoties vardą.

Tada spustelėkite, norėdami matyti oro stebėjimo ir prognozės.

Norėdami pakeisti žemėlapį: spustelėkite ant žalios mygtukų su juodo kryžiaus žemyn,; žalią mygtuką su brūkšneliu, jei norite nutolinti; arba žalių rodyklių gretimoms žemėlapius.


METAR-TAF: